createdAt,value
2017-01-16T00:00:37.310Z,76.86
2017-01-16T00:01:37.323Z,77.71
2017-01-16T00:02:37.337Z,77.71
2017-01-16T00:03:37.349Z,77.24
2017-01-16T00:04:37.357Z,77.71
2017-01-16T00:05:37.371Z,77.24
2017-01-16T00:06:37.382Z,76.95
2017-01-16T00:07:37.396Z,77.24
2017-01-16T00:08:37.402Z,77.24
2017-01-16T00:09:37.417Z,76.95
2017-01-16T00:10:37.426Z,77.24
2017-01-16T00:11:37.439Z,77.33
2017-01-16T00:12:37.449Z,76.67
2017-01-16T00:13:37.462Z,76.95
2017-01-16T00:14:37.474Z,76.76
2017-01-16T00:15:37.485Z,76.86
2017-01-16T00:16:37.887Z,76.76
2017-01-16T00:17:37.508Z,76.76
2017-01-16T00:18:37.523Z,76.76
2017-01-16T00:19:37.529Z,76.76
2017-01-16T00:20:37.542Z,76.73
2017-01-16T00:21:37.553Z,76.92
2017-01-16T00:22:37.569Z,76.73
2017-01-16T00:23:37.577Z,76.15
2017-01-16T00:24:37.587Z,76.63
2017-01-16T00:25:37.602Z,76.01
2017-01-16T00:26:37.611Z,75.96
2017-01-16T00:27:37.624Z,75.59
2017-01-16T00:28:37.637Z,75.96
2017-01-16T00:29:37.647Z,76.54
2017-01-16T00:30:37.660Z,75.78
2017-01-16T00:31:37.670Z,76.48
2017-01-16T00:32:37.676Z,76.29
2017-01-16T00:33:37.691Z,76.25
2017-01-16T00:34:37.707Z,76.2
2017-01-16T00:35:37.715Z,76.54
2017-01-16T00:36:37.729Z,76.1
2017-01-16T00:37:37.740Z,76.63
2017-01-16T00:38:37.896Z,76.44
2017-01-16T00:39:37.853Z,76.54
2017-01-16T00:40:37.880Z,76.44
2017-01-16T00:41:37.783Z,76.54
2017-01-16T00:42:37.793Z,76.73
2017-01-16T00:43:37.806Z,76.54
2017-01-16T00:44:37.819Z,76.54
2017-01-16T00:45:37.831Z,76.44
2017-01-16T00:46:37.840Z,77.11
2017-01-16T00:47:37.849Z,76.48
2017-01-16T00:48:37.864Z,76.57
2017-01-16T00:49:37.873Z,76.39
2017-01-16T00:50:37.888Z,76.57
2017-01-16T00:51:37.894Z,76.86
2017-01-16T00:52:37.907Z,76.2
2017-01-16T00:53:37.922Z,76.82
2017-01-16T00:54:37.936Z,75.96
2017-01-16T00:55:37.941Z,76.54
2017-01-16T00:56:37.955Z,76.67
2017-01-16T00:57:37.967Z,77.11
2017-01-16T00:58:37.978Z,77.11
2017-01-16T00:59:38.103Z,77.14
2017-01-16T01:00:38.117Z,76.95
2017-01-16T01:01:38.106Z,76.92
2017-01-16T01:02:38.112Z,77.24
2017-01-16T01:03:38.123Z,77.05
2017-01-16T01:04:38.132Z,76.48
2017-01-16T01:05:38.151Z,76.39
2017-01-16T01:06:38.258Z,76.86
2017-01-16T01:07:38.257Z,76.67
2017-01-16T01:08:38.265Z,76.48
2017-01-16T01:09:38.275Z,76.57
2017-01-16T01:10:38.229Z,76.39
2017-01-16T01:11:38.416Z,76.39
2017-01-16T01:12:41.173Z,76.2
2017-01-16T01:13:38.156Z,76.29
2017-01-16T01:14:38.206Z,76.57
2017-01-16T01:15:38.215Z,76.76
2017-01-16T01:16:38.185Z,76.67
2017-01-16T01:17:38.198Z,76.57
2017-01-16T01:18:38.208Z,76.48
2017-01-16T01:19:38.217Z,76.86
2017-01-16T01:20:38.235Z,76.86
2017-01-16T01:21:38.247Z,76.39
2017-01-16T01:22:38.255Z,76.1
2017-01-16T01:23:38.267Z,75.72
2017-01-16T01:24:38.415Z,75.91
2017-01-16T01:25:38.353Z,75.91
2017-01-16T01:26:38.301Z,75.59
2017-01-16T01:27:38.316Z,75.59
2017-01-16T01:28:38.325Z,75.87
2017-01-16T01:29:38.340Z,76.06
2017-01-16T01:30:38.345Z,76.15
2017-01-16T01:31:38.363Z,76.06
2017-01-16T01:32:38.373Z,75.87
2017-01-16T01:33:38.380Z,75.96
2017-01-16T01:34:38.392Z,75.87
2017-01-16T01:35:38.408Z,75.87
2017-01-16T01:36:38.415Z,75.87
2017-01-16T01:37:38.424Z,75.4
2017-01-16T01:38:38.469Z,75.21
2017-01-16T01:39:38.448Z,75.11
2017-01-16T01:40:38.460Z,75.49
2017-01-16T01:41:38.468Z,75.59
2017-01-16T01:42:38.487Z,75.68
2017-01-16T01:43:38.498Z,75.78
2017-01-16T01:44:38.621Z,75.31
2017-01-16T01:45:38.517Z,75.59
2017-01-16T01:46:38.651Z,75.68
2017-01-16T01:47:38.541Z,75.4
2017-01-16T01:48:38.556Z,75.21
2017-01-16T01:49:38.564Z,75.11
2017-01-16T01:50:38.573Z,75.4
2017-01-16T01:51:38.583Z,75.11
2017-01-16T01:52:38.599Z,74.92
2017-01-16T01:53:38.611Z,75.02
2017-01-16T01:54:38.621Z,75.59
2017-01-16T01:55:38.635Z,74.92
2017-01-16T01:56:38.648Z,74.92
2017-01-16T01:57:38.653Z,74.92
2017-01-16T01:58:38.718Z,75.4
2017-01-16T01:59:38.913Z,75.11
2017-01-16T02:00:38.690Z,75.11
2017-01-16T02:01:38.703Z,75.11
2017-01-16T02:02:38.745Z,75.11
2017-01-16T02:03:38.741Z,75.31
2017-01-16T02:04:38.733Z,74.83
2017-01-16T02:05:38.746Z,75.21
2017-01-16T02:06:38.758Z,75.11
2017-01-16T02:07:38.827Z,74.54
2017-01-16T02:08:38.780Z,74.26
2017-01-16T02:09:38.792Z,74.54
2017-01-16T02:10:38.804Z,74.45
2017-01-16T02:11:38.815Z,74.45
2017-01-16T02:12:38.823Z,74.45
2017-01-16T02:13:38.837Z,74.54
2017-01-16T02:14:38.848Z,74.54
2017-01-16T02:15:38.859Z,74.54
2017-01-16T02:16:38.867Z,74.35
2017-01-16T02:17:38.880Z,74.83
2017-01-16T02:18:38.985Z,74.26
2017-01-16T02:19:38.942Z,74.35
2017-01-16T02:20:39.039Z,74.35
2017-01-16T02:21:39.332Z,74.64
2017-01-16T02:22:38.941Z,74.73
2017-01-16T02:23:38.951Z,74.54
2017-01-16T02:24:38.964Z,74.45
2017-01-16T02:25:38.971Z,74.45
2017-01-16T02:26:38.984Z,74.07
2017-01-16T02:27:39.182Z,74.26
2017-01-16T02:28:39.008Z,74.35
2017-01-16T02:29:39.019Z,74.73
2017-01-16T02:30:39.030Z,74.35
2017-01-16T02:31:39.040Z,75.11
2017-01-16T02:32:39.052Z,75.02
2017-01-16T02:33:39.063Z,75.21
2017-01-16T02:34:39.074Z,75.11
2017-01-16T02:35:39.086Z,74.83
2017-01-16T02:36:39.096Z,75.11
2017-01-16T02:37:39.107Z,75.02
2017-01-16T02:38:39.121Z,75.02
2017-01-16T02:39:39.131Z,75.4
2017-01-16T02:40:39.142Z,75.21
2017-01-16T02:41:39.348Z,74.92
2017-01-16T02:42:39.356Z,74.92
2017-01-16T02:43:39.177Z,74.92
2017-01-16T02:44:39.185Z,75.31
2017-01-16T02:45:39.199Z,75.11
2017-01-16T02:46:39.212Z,75.02
2017-01-16T02:47:39.222Z,75.31
2017-01-16T02:48:39.231Z,75.21
2017-01-16T02:49:39.250Z,74.73
2017-01-16T02:50:39.255Z,74.35
2017-01-16T02:51:39.300Z,74.64
2017-01-16T02:52:39.375Z,74.54
2017-01-16T02:53:39.289Z,74.35
2017-01-16T02:54:39.301Z,74.92
2017-01-16T02:55:39.312Z,75.02
2017-01-16T02:56:39.323Z,75.11
2017-01-16T02:57:39.338Z,75.11
2017-01-16T02:58:39.346Z,75.31
2017-01-16T02:59:39.357Z,74.35
2017-01-16T03:00:39.368Z,74.64
2017-01-16T03:01:39.383Z,74.35
2017-01-16T03:02:39.392Z,74.26
2017-01-16T03:03:39.406Z,74.26
2017-01-16T03:04:39.415Z,74.73
2017-01-16T03:05:39.423Z,74.45
2017-01-16T03:06:39.436Z,74.83
2017-01-16T03:07:39.446Z,75.31
2017-01-16T03:08:39.460Z,74.92
2017-01-16T03:09:39.474Z,75.21
2017-01-16T03:10:39.480Z,74.35
2017-01-16T03:11:39.490Z,74.26
2017-01-16T03:12:39.504Z,74.73
2017-01-16T03:13:39.516Z,74.64
2017-01-16T03:14:39.526Z,75.21
2017-01-16T03:15:39.541Z,75.11
2017-01-16T03:16:39.548Z,75.31
2017-01-16T03:17:39.556Z,75.02
2017-01-16T03:18:39.570Z,75.21
2017-01-16T03:19:39.581Z,75.02
2017-01-16T03:20:39.596Z,74.92
2017-01-16T03:21:39.605Z,75.11
2017-01-16T03:22:39.616Z,75.59
2017-01-16T03:23:39.625Z,75.78
2017-01-16T03:24:39.638Z,75.4
2017-01-16T03:25:39.648Z,75.68
2017-01-16T03:26:39.662Z,75.11
2017-01-16T03:27:39.670Z,75.11
2017-01-16T03:28:39.682Z,75.4
2017-01-16T03:29:39.699Z,75.21
2017-01-16T03:30:39.704Z,75.4
2017-01-16T03:31:39.722Z,75.59
2017-01-16T03:32:39.726Z,75.59
2017-01-16T03:33:39.738Z,75.59
2017-01-16T03:34:39.751Z,75.49
2017-01-16T03:35:39.759Z,75.68
2017-01-16T03:36:39.773Z,75.4
2017-01-16T03:37:39.784Z,75.68
2017-01-16T03:38:39.797Z,75.31
2017-01-16T03:39:39.805Z,75.59
2017-01-16T03:40:39.933Z,75.59
2017-01-16T03:41:39.918Z,75.31
2017-01-16T03:42:39.953Z,75.4
2017-01-16T03:43:39.945Z,75.31
2017-01-16T03:44:39.953Z,75.59
2017-01-16T03:45:39.962Z,75.11
2017-01-16T03:46:40.071Z,74.83
2017-01-16T03:47:40.214Z,74.92
2017-01-16T03:48:40.081Z,75.11
2017-01-16T03:49:40.087Z,75.21
2017-01-16T03:50:40.096Z,75.11
2017-01-16T03:51:40.105Z,75.21
2017-01-16T03:52:39.952Z,74.92
2017-01-16T03:53:39.965Z,75.02
2017-01-16T03:54:39.980Z,75.11
2017-01-16T03:55:39.988Z,75.11
2017-01-16T03:56:39.998Z,74.83
2017-01-16T03:57:40.009Z,75.4
2017-01-16T03:58:40.022Z,75.11
2017-01-16T03:59:40.034Z,75.02
2017-01-16T04:00:40.043Z,75.11
2017-01-16T04:01:40.145Z,75.31
2017-01-16T04:02:41.565Z,75.21
2017-01-16T04:03:40.088Z,74.92
2017-01-16T04:04:40.097Z,75.02
2017-01-16T04:05:40.106Z,75.21
2017-01-16T04:06:40.110Z,75.4
2017-01-16T04:07:40.171Z,75.21
2017-01-16T04:08:40.222Z,74.92
2017-01-16T04:09:40.144Z,75.21
2017-01-16T04:10:40.199Z,75.68
2017-01-16T04:11:40.168Z,75.4
2017-01-16T04:12:40.229Z,75.11
2017-01-16T04:13:40.189Z,74.92
2017-01-16T04:14:40.198Z,75.4
2017-01-16T04:15:40.213Z,75.31
2017-01-16T04:16:40.224Z,75.49
2017-01-16T04:17:40.235Z,75.31
2017-01-16T04:18:40.247Z,75.31
2017-01-16T04:19:40.257Z,75.02
2017-01-16T04:20:40.267Z,75.21
2017-01-16T04:21:40.279Z,75.31
2017-01-16T04:22:40.290Z,75.49
2017-01-16T04:23:40.313Z,75.11
2017-01-16T04:24:40.313Z,75.02
2017-01-16T04:25:40.417Z,75.11
2017-01-16T04:26:40.336Z,75.02
2017-01-16T04:27:40.353Z,75.02
2017-01-16T04:28:40.359Z,75.21
2017-01-16T04:29:40.373Z,75.31
2017-01-16T04:30:40.383Z,75.02
2017-01-16T04:31:40.393Z,75.11
2017-01-16T04:32:40.409Z,74.92
2017-01-16T04:33:40.412Z,75.02
2017-01-16T04:34:40.428Z,75.11
2017-01-16T04:35:40.437Z,75.02
2017-01-16T04:36:40.449Z,75.02
2017-01-16T04:37:40.463Z,74.83
2017-01-16T04:38:40.496Z,75.21
2017-01-16T04:39:40.484Z,75.4
2017-01-16T04:40:40.495Z,75.11
2017-01-16T04:41:40.508Z,75.31
2017-01-16T04:42:40.517Z,74.45
2017-01-16T04:43:40.525Z,74.64
2017-01-16T04:44:40.540Z,74.54
2017-01-16T04:45:40.552Z,74.83
2017-01-16T04:46:40.562Z,74.35
2017-01-16T04:47:40.574Z,74.26
2017-01-16T04:48:40.586Z,74.54
2017-01-16T04:49:40.595Z,74.54
2017-01-16T04:50:40.704Z,74.35
2017-01-16T04:51:40.618Z,74.07
2017-01-16T04:52:40.736Z,73.88
2017-01-16T04:53:40.744Z,74.35
2017-01-16T04:54:40.756Z,74.26
2017-01-16T04:55:40.762Z,74.45
2017-01-16T04:56:40.676Z,74.16
2017-01-16T04:57:40.684Z,74.73
2017-01-16T04:58:40.698Z,74.07
2017-01-16T04:59:40.707Z,74.16
2017-01-16T05:00:40.719Z,74.26
2017-01-16T05:01:40.734Z,74.16
2017-01-16T05:02:40.741Z,74.26
2017-01-16T05:03:40.755Z,74.54
2017-01-16T05:04:40.762Z,74.26
2017-01-16T05:05:40.776Z,73.97
2017-01-16T05:06:40.787Z,74.35
2017-01-16T05:07:40.800Z,74.07
2017-01-16T05:08:40.810Z,73.5
2017-01-16T05:09:40.820Z,74.26
2017-01-16T05:10:40.834Z,74.07
2017-01-16T05:11:40.841Z,73.97
2017-01-16T05:12:40.967Z,73.88
2017-01-16T05:13:40.866Z,74.16
2017-01-16T05:14:40.992Z,73.79
2017-01-16T05:15:40.889Z,73.41
2017-01-16T05:16:41.014Z,73.69
2017-01-16T05:17:41.014Z,73.22
2017-01-16T05:18:41.033Z,73.6
2017-01-16T05:19:40.933Z,73.79
2017-01-16T05:20:40.943Z,73.97
2017-01-16T05:21:41.070Z,73.97
2017-01-16T05:22:41.078Z,74.35
2017-01-16T05:23:41.046Z,74.16
2017-01-16T05:24:40.992Z,73.22
2017-01-16T05:25:41.000Z,73.31
2017-01-16T05:26:41.013Z,73.6
2017-01-16T05:27:41.020Z,73.97
2017-01-16T05:28:41.147Z,73.88
2017-01-16T05:29:41.048Z,74.16
2017-01-16T05:30:41.056Z,73.79
2017-01-16T05:31:41.183Z,74.07
2017-01-16T05:32:41.080Z,73.69
2017-01-16T05:33:41.087Z,73.79
2017-01-16T05:34:41.100Z,73.88
2017-01-16T05:35:41.200Z,74.07
2017-01-16T05:36:41.125Z,73.6
2017-01-16T05:37:41.134Z,74.26
2017-01-16T05:38:41.264Z,73.88
2017-01-16T05:39:41.156Z,74.07
2017-01-16T05:40:41.168Z,74.35
2017-01-16T05:41:41.177Z,74.45
2017-01-16T05:42:41.189Z,74.54
2017-01-16T05:43:41.200Z,74.64
2017-01-16T05:44:41.213Z,74.83
2017-01-16T05:45:41.344Z,74.26
2017-01-16T05:46:41.235Z,74.54
2017-01-16T05:47:41.248Z,74.26
2017-01-16T05:48:41.255Z,73.97
2017-01-16T05:49:41.270Z,73.79
2017-01-16T05:50:41.280Z,73.6
2017-01-16T05:51:41.290Z,73.97
2017-01-16T05:52:41.302Z,74.07
2017-01-16T05:53:41.317Z,74.16
2017-01-16T05:54:41.323Z,74.07
2017-01-16T05:55:41.337Z,74.26
2017-01-16T05:56:41.347Z,74.07
2017-01-16T05:57:41.359Z,74.07
2017-01-16T05:58:41.368Z,74.35
2017-01-16T05:59:41.382Z,74.26
2017-01-16T06:00:41.394Z,73.97
2017-01-16T06:01:41.404Z,74.45
2017-01-16T06:02:41.418Z,74.64
2017-01-16T06:03:41.425Z,74.26
2017-01-16T06:04:41.437Z,74.26
2017-01-16T06:05:41.562Z,74.64
2017-01-16T06:06:41.570Z,74.54
2017-01-16T06:07:41.467Z,74.54
2017-01-16T06:08:41.482Z,74.83
2017-01-16T06:09:41.607Z,74.83
2017-01-16T06:10:41.711Z,74.35
2017-01-16T06:11:41.517Z,74.07
2017-01-16T06:12:41.524Z,73.97
2017-01-16T06:13:41.538Z,73.79
2017-01-16T06:14:41.546Z,74.07
2017-01-16T06:15:41.560Z,74.07
2017-01-16T06:16:41.629Z,73.97
2017-01-16T06:17:41.580Z,74.45
2017-01-16T06:18:41.591Z,74.35
2017-01-16T06:19:41.720Z,73.88
2017-01-16T06:20:41.727Z,73.97
2017-01-16T06:21:41.626Z,73.97
2017-01-16T06:22:41.748Z,73.88
2017-01-16T06:23:41.662Z,73.69
2017-01-16T06:24:41.773Z,73.79
2017-01-16T06:25:41.671Z,73.97
2017-01-16T06:26:41.683Z,73.6
2017-01-16T06:27:41.809Z,73.6
2017-01-16T06:28:41.702Z,73.6
2017-01-16T06:29:41.716Z,73.31
2017-01-16T06:30:41.845Z,73.69
2017-01-16T06:31:41.848Z,73.97
2017-01-16T06:32:41.863Z,73.88
2017-01-16T06:33:41.875Z,74.16
2017-01-16T06:34:41.768Z,73.41
2017-01-16T06:35:41.782Z,73.41
2017-01-16T06:36:41.792Z,73.41
2017-01-16T06:37:41.805Z,73.69
2017-01-16T06:38:41.927Z,73.79
2017-01-16T06:39:41.828Z,73.97
2017-01-16T06:40:41.835Z,74.16
2017-01-16T06:41:41.854Z,74.45
2017-01-16T06:42:41.964Z,73.97
2017-01-16T06:43:41.869Z,74.73
2017-01-16T06:44:41.882Z,74.54
2017-01-16T06:45:41.894Z,74.16
2017-01-16T06:46:41.904Z,74.54
2017-01-16T06:47:41.917Z,75.02
2017-01-16T06:48:41.927Z,75.11
2017-01-16T06:49:41.939Z,74.35
2017-01-16T06:50:42.056Z,74.35
2017-01-16T06:51:41.960Z,74.54
2017-01-16T06:52:42.031Z,74.54
2017-01-16T06:53:41.984Z,74.64
2017-01-16T06:54:41.992Z,74.54
2017-01-16T06:55:42.004Z,74.64
2017-01-16T06:56:42.041Z,74.26
2017-01-16T06:57:42.026Z,73.97
2017-01-16T06:58:42.036Z,73.88
2017-01-16T06:59:42.119Z,74.26
2017-01-16T07:00:42.061Z,74.16
2017-01-16T07:01:42.171Z,74.54
2017-01-16T07:02:42.086Z,74.64
2017-01-16T07:03:42.093Z,74.64
2017-01-16T07:04:42.112Z,74.35
2017-01-16T07:05:42.231Z,74.54
2017-01-16T07:06:42.126Z,74.83
2017-01-16T07:07:42.138Z,74.73
2017-01-16T07:08:42.146Z,74.73
2017-01-16T07:09:42.161Z,74.54
2017-01-16T07:10:42.169Z,75.02
2017-01-16T07:11:42.182Z,74.64
2017-01-16T07:12:42.192Z,74.83
2017-01-16T07:13:42.205Z,75.11
2017-01-16T07:14:42.229Z,75.02
2017-01-16T07:15:42.315Z,75.11
2017-01-16T07:16:42.238Z,75.21
2017-01-16T07:17:42.358Z,74.92
2017-01-16T07:18:42.258Z,74.83
2017-01-16T07:19:42.269Z,74.73
2017-01-16T07:20:42.278Z,74.45
2017-01-16T07:21:42.371Z,74.35
2017-01-16T07:22:42.303Z,74.26
2017-01-16T07:23:42.312Z,74.45
2017-01-16T07:24:42.332Z,74.07
2017-01-16T07:25:42.337Z,74.54
2017-01-16T07:26:42.348Z,74.83
2017-01-16T07:27:42.355Z,74.35
2017-01-16T07:28:42.372Z,74.35
2017-01-16T07:29:42.380Z,74.35
2017-01-16T07:30:42.391Z,74.35
2017-01-16T07:31:42.516Z,74.83
2017-01-16T07:32:42.414Z,74.83
2017-01-16T07:33:42.426Z,74.73
2017-01-16T07:34:42.551Z,74.64
2017-01-16T07:35:42.449Z,74.64
2017-01-16T07:36:42.558Z,74.73
2017-01-16T07:37:42.470Z,74.35
2017-01-16T07:38:42.487Z,74.54
2017-01-16T07:39:42.492Z,74.45
2017-01-16T07:40:42.504Z,73.97
2017-01-16T07:41:42.514Z,73.6
2017-01-16T07:42:42.532Z,73.88
2017-01-16T07:43:42.539Z,74.26
2017-01-16T07:44:42.660Z,73.6
2017-01-16T07:45:42.559Z,73.6
2017-01-16T07:46:42.570Z,73.5
2017-01-16T07:47:42.583Z,73.41
2017-01-16T07:48:42.592Z,73.41
2017-01-16T07:49:42.605Z,73.22
2017-01-16T07:50:42.614Z,73.31
2017-01-16T07:51:42.627Z,73.41
2017-01-16T07:52:42.783Z,73.79
2017-01-16T07:53:42.645Z,72.84
2017-01-16T07:54:42.661Z,73.41
2017-01-16T07:55:42.668Z,73.03
2017-01-16T07:56:42.683Z,73.41
2017-01-16T07:57:42.693Z,73.69
2017-01-16T07:58:42.703Z,73.41
2017-01-16T07:59:42.718Z,73.41
2017-01-16T08:00:42.727Z,73.6
2017-01-16T08:01:42.740Z,73.79
2017-01-16T08:02:42.748Z,73.22
2017-01-16T08:03:42.760Z,73.22
2017-01-16T08:04:42.770Z,73.22
2017-01-16T08:05:42.843Z,73.41
2017-01-16T08:06:42.794Z,73.31
2017-01-16T08:07:42.804Z,73.41
2017-01-16T08:08:42.816Z,73.5
2017-01-16T08:09:42.826Z,73.5
2017-01-16T08:10:42.839Z,73.41
2017-01-16T08:11:42.849Z,73.5
2017-01-16T08:12:42.969Z,73.31
2017-01-16T08:13:42.871Z,73.31
2017-01-16T08:14:42.880Z,73.31
2017-01-16T08:15:42.892Z,73.5
2017-01-16T08:16:42.901Z,73.41
2017-01-16T08:17:42.917Z,73.22
2017-01-16T08:18:43.041Z,73.6
2017-01-16T08:19:42.935Z,73.69
2017-01-16T08:20:43.114Z,73.69
2017-01-16T08:21:42.954Z,73.31
2017-01-16T08:22:42.970Z,73.41
2017-01-16T08:23:42.981Z,73.5
2017-01-16T08:24:42.993Z,73.31
2017-01-16T08:25:43.214Z,73.41
2017-01-16T08:26:43.015Z,73.12
2017-01-16T08:27:43.028Z,73.41
2017-01-16T08:28:43.037Z,73.5
2017-01-16T08:29:43.046Z,73.31
2017-01-16T08:30:43.060Z,73.22
2017-01-16T08:31:43.184Z,73.41
2017-01-16T08:32:43.079Z,73.69
2017-01-16T08:33:43.211Z,73.88
2017-01-16T08:34:43.103Z,73.6
2017-01-16T08:35:43.115Z,73.31
2017-01-16T08:36:43.125Z,73.22
2017-01-16T08:37:43.141Z,73.41
2017-01-16T08:38:43.200Z,73.6
2017-01-16T08:39:43.159Z,73.5
2017-01-16T08:40:43.172Z,73.69
2017-01-16T08:41:43.184Z,73.12
2017-01-16T08:42:43.193Z,72.74
2017-01-16T08:43:43.204Z,72.93
2017-01-16T08:44:43.215Z,72.93
2017-01-16T08:45:43.223Z,73.41
2017-01-16T08:46:43.235Z,72.64
2017-01-16T08:47:43.247Z,73.41
2017-01-16T08:48:43.260Z,73.03
2017-01-16T08:49:43.270Z,73.6
2017-01-16T08:50:43.283Z,73.5
2017-01-16T08:51:43.292Z,73.41
2017-01-16T08:52:43.305Z,73.22
2017-01-16T08:53:43.312Z,73.41
2017-01-16T08:54:43.325Z,73.22
2017-01-16T08:55:43.387Z,73.41
2017-01-16T08:56:43.346Z,73.69
2017-01-16T08:57:43.360Z,73.5
2017-01-16T08:58:43.372Z,73.22
2017-01-16T08:59:43.387Z,73.69
2017-01-16T09:00:43.390Z,73.88
2017-01-16T09:01:43.404Z,73.79
2017-01-16T09:02:43.419Z,73.79
2017-01-16T09:03:43.428Z,74.07
2017-01-16T09:04:43.437Z,74.45
2017-01-16T09:05:43.448Z,74.26
2017-01-16T09:06:43.457Z,74.07
2017-01-16T09:07:43.472Z,73.79
2017-01-16T09:08:43.481Z,73.79
2017-01-16T09:09:43.493Z,74.45
2017-01-16T09:10:43.508Z,74.07
2017-01-16T09:11:43.515Z,74.26
2017-01-16T09:12:43.528Z,74.07
2017-01-16T09:13:43.539Z,73.88
2017-01-16T09:14:43.550Z,74.26
2017-01-16T09:15:43.563Z,74.07
2017-01-16T09:16:43.577Z,74.07
2017-01-16T09:17:43.586Z,74.07
2017-01-16T09:18:43.597Z,74.07
2017-01-16T09:19:43.607Z,74.07
2017-01-16T09:20:43.619Z,74.11
2017-01-16T09:21:43.628Z,74.16
2017-01-16T09:22:43.638Z,74.07
2017-01-16T09:23:43.653Z,74.54
2017-01-16T09:24:43.660Z,73.97
2017-01-16T09:25:43.676Z,73.97
2017-01-16T09:26:43.686Z,74.16
2017-01-16T09:27:43.699Z,73.44
2017-01-16T09:28:43.709Z,72.93
2017-01-16T09:29:43.723Z,72.84
2017-01-16T09:30:43.728Z,73.03
2017-01-16T09:31:43.742Z,72.93
2017-01-16T09:32:43.754Z,73.12
2017-01-16T09:33:43.767Z,73.22
2017-01-16T09:34:43.772Z,72.93
2017-01-16T09:35:43.790Z,73.69
2017-01-16T09:36:43.799Z,73.6
2017-01-16T09:37:43.812Z,73.6
2017-01-16T09:38:43.822Z,73.41
2017-01-16T09:39:43.949Z,73.41
2017-01-16T09:40:43.846Z,73.41
2017-01-16T09:41:43.857Z,73.31
2017-01-16T09:42:43.871Z,73.5
2017-01-16T09:43:43.880Z,73.6
2017-01-16T09:44:43.891Z,73.12
2017-01-16T09:45:43.905Z,72.64
2017-01-16T09:46:43.913Z,73.22
2017-01-16T09:47:43.923Z,73.03
2017-01-16T09:48:43.937Z,73.41
2017-01-16T09:49:43.948Z,73.6
2017-01-16T09:50:43.961Z,73.41
2017-01-16T09:51:43.971Z,73.79
2017-01-16T09:52:43.984Z,73.69
2017-01-16T09:53:43.996Z,73.69
2017-01-16T09:54:44.006Z,73.41
2017-01-16T09:55:44.015Z,73.41
2017-01-16T09:56:44.026Z,73.12
2017-01-16T09:57:44.041Z,73.6
2017-01-16T09:58:44.049Z,73.41
2017-01-16T09:59:44.062Z,73.5
2017-01-16T10:00:44.073Z,73.79
2017-01-16T10:01:44.085Z,73.44
2017-01-16T10:02:44.491Z,73.54
2017-01-16T10:03:44.108Z,73.03
2017-01-16T10:04:44.117Z,72.74
2017-01-16T10:05:44.130Z,72.93
2017-01-16T10:06:44.141Z,73.5
2017-01-16T10:07:44.149Z,72.84
2017-01-16T10:08:44.165Z,72.93
2017-01-16T10:09:44.175Z,72.84
2017-01-16T10:10:44.187Z,73.41
2017-01-16T10:11:44.196Z,72.84
2017-01-16T10:12:44.208Z,72.17
2017-01-16T10:13:44.225Z,72.27
2017-01-16T10:14:44.232Z,72.27
2017-01-16T10:15:44.241Z,72.27
2017-01-16T10:16:44.255Z,72.55
2017-01-16T10:17:44.269Z,72.74
2017-01-16T10:18:44.277Z,72.55
2017-01-16T10:19:44.290Z,72.74
2017-01-16T10:20:44.298Z,72.74
2017-01-16T10:21:44.311Z,72.55
2017-01-16T10:22:44.322Z,72.74
2017-01-16T10:23:44.334Z,72.74
2017-01-16T10:24:44.345Z,73.6
2017-01-16T10:25:44.358Z,73.03
2017-01-16T10:26:44.368Z,73.41
2017-01-16T10:27:44.382Z,73.12
2017-01-16T10:28:44.398Z,73.03
2017-01-16T10:29:44.401Z,72.84
2017-01-16T10:30:44.412Z,73.31
2017-01-16T10:31:44.424Z,73.22
2017-01-16T10:32:44.434Z,72.93
2017-01-16T10:33:44.448Z,73.41
2017-01-16T10:34:44.458Z,73.41
2017-01-16T10:35:44.469Z,73.5
2017-01-16T10:36:44.482Z,73.22
2017-01-16T10:37:44.492Z,73.03
2017-01-16T10:38:44.506Z,72.74
2017-01-16T10:39:44.516Z,73.22
2017-01-16T10:40:44.528Z,73.22
2017-01-16T10:41:44.537Z,73.69
2017-01-16T10:42:44.552Z,73.6
2017-01-16T10:43:44.561Z,73.5
2017-01-16T10:44:44.573Z,73.6
2017-01-16T10:45:44.581Z,73.22
2017-01-16T10:46:44.597Z,73.41
2017-01-16T10:47:44.605Z,73.41
2017-01-16T10:48:44.622Z,73.69
2017-01-16T10:49:44.629Z,73.6
2017-01-16T10:50:44.642Z,73.22
2017-01-16T10:51:44.658Z,73.25
2017-01-16T10:52:44.667Z,72.59
2017-01-16T10:53:44.674Z,72.68
2017-01-16T10:54:44.687Z,72.55
2017-01-16T10:55:44.721Z,72.55
2017-01-16T10:56:44.706Z,72.36
2017-01-16T10:57:44.721Z,72.36
2017-01-16T10:58:44.735Z,72.64
2017-01-16T10:59:44.742Z,72.64
2017-01-16T11:00:44.756Z,72.27
2017-01-16T11:01:44.766Z,72.17
2017-01-16T11:02:44.777Z,72.93
2017-01-16T11:03:44.789Z,72.74
2017-01-16T11:04:44.800Z,72.36
2017-01-16T11:05:44.811Z,72.45
2017-01-16T11:06:44.825Z,72.55
2017-01-16T11:07:44.836Z,72.36
2017-01-16T11:08:44.845Z,72.84
2017-01-16T11:09:44.858Z,73.03
2017-01-16T11:10:44.869Z,72.64
2017-01-16T11:11:44.879Z,72.84
2017-01-16T11:12:44.891Z,72.84
2017-01-16T11:13:44.901Z,72.45
2017-01-16T11:14:44.914Z,72.64
2017-01-16T11:15:44.925Z,72.17
2017-01-16T11:16:44.939Z,72.55
2017-01-16T11:17:44.970Z,72.08
2017-01-16T11:18:44.957Z,72.45
2017-01-16T11:19:44.969Z,72.08
2017-01-16T11:20:44.980Z,72.17
2017-01-16T11:21:44.994Z,72.17
2017-01-16T11:22:45.004Z,71.89
2017-01-16T11:23:45.017Z,71.7
2017-01-16T11:24:45.026Z,71.8
2017-01-16T11:25:45.038Z,72.27
2017-01-16T11:26:45.049Z,72.36
2017-01-16T11:27:45.060Z,71.89
2017-01-16T11:28:45.071Z,71.98
2017-01-16T11:29:45.085Z,71.6
2017-01-16T11:30:45.094Z,71.22
2017-01-16T11:31:45.103Z,71.22
2017-01-16T11:32:45.116Z,71.6
2017-01-16T11:33:45.128Z,72.08
2017-01-16T11:34:45.140Z,72.36
2017-01-16T11:35:45.149Z,72.17
2017-01-16T11:36:45.167Z,72.45
2017-01-16T11:37:45.171Z,72.55
2017-01-16T11:38:45.185Z,72.36
2017-01-16T11:39:45.198Z,72.93
2017-01-16T11:40:45.206Z,72.55
2017-01-16T11:41:45.219Z,72.17
2017-01-16T11:42:45.230Z,72.17
2017-01-16T11:43:45.249Z,72.17
2017-01-16T11:44:45.253Z,72.21
2017-01-16T11:45:45.264Z,72.17
2017-01-16T11:46:45.274Z,72.08
2017-01-16T11:47:45.287Z,72.17
2017-01-16T11:48:45.297Z,72.74
2017-01-16T11:49:45.309Z,72.64
2017-01-16T11:50:45.318Z,72.36
2017-01-16T11:51:45.333Z,72.17
2017-01-16T11:52:45.341Z,72.17
2017-01-16T11:53:45.355Z,72.36
2017-01-16T11:54:45.364Z,72.17
2017-01-16T11:55:45.376Z,72.17
2017-01-16T11:56:45.388Z,72.02
2017-01-16T11:57:45.398Z,72.93
2017-01-16T11:58:45.410Z,72.97
2017-01-16T11:59:45.422Z,72.17
2017-01-16T12:00:45.434Z,72.08
2017-01-16T12:01:45.443Z,72.08
2017-01-16T12:02:45.452Z,71.89
2017-01-16T12:03:45.466Z,71.98
2017-01-16T12:04:45.477Z,71.41
2017-01-16T12:05:45.488Z,71.13
2017-01-16T12:06:45.500Z,71.03
2017-01-16T12:07:45.511Z,71.51
2017-01-16T12:08:45.522Z,71.7
2017-01-16T12:09:45.538Z,71.98
2017-01-16T12:10:45.544Z,71.8
2017-01-16T12:11:45.558Z,71.32
2017-01-16T12:12:45.572Z,71.51
2017-01-16T12:13:45.578Z,71.6
2017-01-16T12:14:45.591Z,71.51
2017-01-16T12:15:45.603Z,71.03
2017-01-16T12:16:45.613Z,71.51
2017-01-16T12:17:45.622Z,71.6
2017-01-16T12:18:45.638Z,71.41
2017-01-16T12:19:45.645Z,71.32
2017-01-16T12:20:45.659Z,71.41
2017-01-16T12:21:45.668Z,71.7
2017-01-16T12:22:45.682Z,71.7
2017-01-16T12:23:45.693Z,72.17
2017-01-16T12:24:45.702Z,71.98
2017-01-16T12:25:45.716Z,71.98
2017-01-16T12:26:45.723Z,71.8
2017-01-16T12:27:45.742Z,71.8
2017-01-16T12:28:45.752Z,72.36
2017-01-16T12:29:45.760Z,72.08
2017-01-16T12:30:45.769Z,72.36
2017-01-16T12:31:45.782Z,72.21
2017-01-16T12:32:45.795Z,72.4
2017-01-16T12:33:45.805Z,71.83
2017-01-16T12:34:45.819Z,72.02
2017-01-16T12:35:45.826Z,71.17
2017-01-16T12:36:45.838Z,71.22
2017-01-16T12:37:45.850Z,70.65
2017-01-16T12:38:45.864Z,70.94
2017-01-16T12:39:45.871Z,70.56
2017-01-16T12:40:45.883Z,71.41
2017-01-16T12:41:45.895Z,71.26
2017-01-16T12:42:45.933Z,71.22
2017-01-16T12:43:45.916Z,71.22
2017-01-16T12:44:45.929Z,71.22
2017-01-16T12:45:45.937Z,71.41
2017-01-16T12:46:45.949Z,71.89
2017-01-16T12:47:45.963Z,71.26
2017-01-16T12:48:45.976Z,71.22
2017-01-16T12:49:45.987Z,71.32
2017-01-16T12:50:45.995Z,71.22
2017-01-16T12:51:46.006Z,71.03
2017-01-16T12:52:46.017Z,71.51
2017-01-16T12:53:46.029Z,71.98
2017-01-16T12:54:46.043Z,71.89
2017-01-16T12:55:46.054Z,71.7